createdAt,value
2023-01-26T00:02:03.414Z,102415.02
2023-01-26T00:04:31.800Z,102408.73
2023-01-26T00:07:03.400Z,102408.11
2023-01-26T00:09:32.797Z,102406.24
2023-01-26T00:12:01.223Z,102406.53
2023-01-26T00:14:49.536Z,102408.95
2023-01-26T00:17:26.366Z,102404.08
2023-01-26T00:19:57.438Z,102404.88
2023-01-26T00:22:27.805Z,102405.09
2023-01-26T00:24:56.265Z,102403.76
2023-01-26T00:27:24.580Z,102407.27
2023-01-26T00:29:53.880Z,102405.99
2023-01-26T00:32:23.060Z,102386.06
2023-01-26T00:34:51.343Z,102395.77
2023-01-26T00:37:19.631Z,102387.34
2023-01-26T00:39:47.929Z,102383.02
2023-01-26T00:42:16.385Z,102379.04
2023-01-26T00:44:44.979Z,102377.03
2023-01-26T00:47:14.966Z,102374.30
2023-01-26T00:49:43.525Z,102363.45
2023-01-26T00:52:14.249Z,102381.11
2023-01-26T00:54:42.791Z,102368.67
2023-01-26T00:57:11.334Z,102388.59
2023-01-26T00:59:39.550Z,102390.30
2023-01-26T01:02:08.000Z,102386.26
2023-01-26T01:04:36.667Z,102376.56
2023-01-26T01:07:05.520Z,102367.79
2023-01-26T01:09:34.637Z,102364.73
2023-01-26T01:12:03.134Z,102368.20
2023-01-26T01:14:31.585Z,102367.48
2023-01-26T01:17:00.369Z,102366.13
2023-01-26T01:19:29.079Z,102362.77
2023-01-26T01:21:57.724Z,102360.21
2023-01-26T01:24:26.015Z,102354.90
2023-01-26T01:26:54.380Z,102353.34
2023-01-26T01:29:22.546Z,102335.88
2023-01-26T01:31:51.131Z,102348.86
2023-01-26T01:34:19.356Z,102354.37
2023-01-26T01:36:47.563Z,102354.35
2023-01-26T01:41:43.938Z,102346.04
2023-01-26T01:44:18.988Z,102344.76
2023-01-26T01:47:16.619Z,102338.38
2023-01-26T01:49:51.064Z,102334.58
2023-01-26T01:52:26.590Z,102334.29
2023-01-26T01:55:08.994Z,102332.84
2023-01-26T01:57:46.321Z,102323.50
2023-01-26T02:00:19.963Z,102303.96
2023-01-26T02:03:11.843Z,102314.15
2023-01-26T02:05:59.755Z,102307.78
2023-01-26T02:08:35.231Z,102310.27
2023-01-26T02:11:09.537Z,102309.02
2023-01-26T02:13:39.294Z,102298.83
2023-01-26T02:16:07.500Z,102302.27
2023-01-26T02:18:36.164Z,102304.40
2023-01-26T02:21:11.489Z,102303.42
2023-01-26T02:24:03.026Z,102298.19
2023-01-26T02:26:36.872Z,102284.55
2023-01-26T02:29:08.975Z,102292.31
2023-01-26T02:31:40.707Z,102291.54
2023-01-26T02:34:08.990Z,102284.86
2023-01-26T02:36:37.899Z,102284.93
2023-01-26T02:39:12.212Z,102283.52
2023-01-26T02:41:59.704Z,102285.27
2023-01-26T02:44:30.651Z,102280.35
2023-01-26T02:46:58.824Z,102282.65
2023-01-26T02:49:45.699Z,102279.23
2023-01-26T02:52:15.940Z,102275.58
2023-01-26T02:55:05.786Z,102258.19
2023-01-26T02:57:35.387Z,102266.11
2023-01-26T03:00:06.476Z,102261.77
2023-01-26T03:02:35.071Z,102255.53
2023-01-26T03:05:05.020Z,102248.42
2023-01-26T03:07:33.430Z,102241.66
2023-01-26T03:10:01.936Z,102246.20
2023-01-26T03:12:30.447Z,102244.06
2023-01-26T03:15:16.918Z,102234.85
2023-01-26T03:17:45.458Z,102231.66
2023-01-26T03:20:32.767Z,102234.63
2023-01-26T03:23:36.326Z,102232.02
2023-01-26T03:26:23.974Z,102227.65
2023-01-26T03:28:52.521Z,102228.16
2023-01-26T03:31:21.032Z,102229.42
2023-01-26T03:33:49.264Z,102233.60
2023-01-26T03:36:17.810Z,102225.52
2023-01-26T03:38:46.087Z,102240.38
2023-01-26T03:41:33.255Z,102242.02
2023-01-26T03:44:19.806Z,102247.48
2023-01-26T03:47:07.677Z,102245.41
2023-01-26T03:49:54.653Z,102244.52
2023-01-26T03:52:41.529Z,102245.33
2023-01-26T03:55:28.514Z,102244.71
2023-01-26T03:57:56.683Z,102237.77
2023-01-26T04:00:24.805Z,102232.11
2023-01-26T04:03:12.069Z,102230.45
2023-01-26T04:06:15.491Z,102225.71
2023-01-26T04:08:48.166Z,102223.84
2023-01-26T04:11:16.389Z,102229.23
2023-01-26T04:14:03.406Z,102211.25
2023-01-26T04:16:52.968Z,102222.05
2023-01-26T04:19:40.045Z,102211.27
2023-01-26T04:22:08.743Z,102206.55
2023-01-26T04:24:38.053Z,102203.24
2023-01-26T04:27:06.210Z,102205.21
2023-01-26T04:29:37.913Z,102204.13
2023-01-26T04:32:06.402Z,102200.85
2023-01-26T04:34:35.662Z,102196.24
2023-01-26T04:37:09.673Z,102198.86
2023-01-26T04:39:45.673Z,102202.91
2023-01-26T04:42:14.252Z,102202.98
2023-01-26T04:44:42.754Z,102197.50
2023-01-26T04:47:11.028Z,102197.14
2023-01-26T04:49:39.972Z,102191.74
2023-01-26T04:52:08.965Z,102194.02
2023-01-26T04:54:37.451Z,102197.09
2023-01-26T04:57:06.197Z,102197.42
2023-01-26T04:59:35.947Z,102182.90
2023-01-26T05:02:05.212Z,102196.68
2023-01-26T05:04:33.872Z,102178.09
2023-01-26T05:07:03.729Z,102194.38
2023-01-26T05:09:32.379Z,102195.31
2023-01-26T05:12:33.592Z,102192.82
2023-01-26T05:15:25.364Z,102188.79
2023-01-26T05:18:05.037Z,102184.05
2023-01-26T05:20:45.364Z,102185.02
2023-01-26T05:23:24.342Z,102179.48
2023-01-26T05:26:22.022Z,102182.13
2023-01-26T05:28:59.680Z,102170.80
2023-01-26T05:31:28.086Z,102189.42
2023-01-26T05:33:56.482Z,102190.48
2023-01-26T05:36:25.607Z,102192.58
2023-01-26T05:38:53.783Z,102193.73
2023-01-26T05:41:25.471Z,102197.73
2023-01-26T05:44:14.453Z,102200.30
2023-01-26T05:46:46.031Z,102199.04
2023-01-26T05:49:14.273Z,102199.16
2023-01-26T05:51:42.789Z,102206.22
2023-01-26T05:54:11.427Z,102204.20
2023-01-26T05:56:39.817Z,102205.29
2023-01-26T05:59:08.886Z,102207.44
2023-01-26T06:01:37.522Z,102203.66
2023-01-26T06:04:07.299Z,102206.69
2023-01-26T06:06:57.273Z,102207.23
2023-01-26T06:09:30.918Z,102207.84
2023-01-26T06:12:25.242Z,102207.38
2023-01-26T06:14:53.422Z,102204.66
2023-01-26T06:17:22.141Z,102199.51
2023-01-26T06:19:55.280Z,102200.38
2023-01-26T06:22:23.816Z,102199.98
2023-01-26T06:24:52.815Z,102196.17
2023-01-26T06:27:21.784Z,102192.84
2023-01-26T06:29:51.847Z,102193.83
2023-01-26T06:32:20.305Z,102197.79
2023-01-26T06:34:53.520Z,102192.02
2023-01-26T06:37:22.080Z,102197.64
2023-01-26T06:39:52.206Z,102195.68
2023-01-26T06:42:20.387Z,102196.27
2023-01-26T06:44:48.513Z,102193.69
2023-01-26T06:47:18.174Z,102172.70
2023-01-26T06:49:46.620Z,102194.52
2023-01-26T06:52:27.321Z,102191.99
2023-01-26T06:55:00.576Z,102194.29
2023-01-26T06:57:46.896Z,102191.08
2023-01-26T07:00:34.282Z,102193.30
2023-01-26T07:03:16.595Z,102193.80
2023-01-26T07:05:45.266Z,102192.12
2023-01-26T07:08:13.732Z,102191.78
2023-01-26T07:10:42.171Z,102176.31
2023-01-26T07:13:10.707Z,102191.77
2023-01-26T07:15:39.175Z,102188.96
2023-01-26T07:18:07.712Z,102168.64
2023-01-26T07:20:37.167Z,102177.39
2023-01-26T07:23:05.313Z,102179.61
2023-01-26T07:25:33.423Z,102178.86
2023-01-26T07:28:01.534Z,102181.11
2023-01-26T07:30:30.774Z,102162.41
2023-01-26T07:33:00.692Z,102172.02
2023-01-26T07:35:32.401Z,102170.64
2023-01-26T07:38:00.567Z,102172.00
2023-01-26T07:40:28.766Z,102169.77
2023-01-26T07:42:59.907Z,102169.98
2023-01-26T07:45:53.799Z,102170.30
2023-01-26T07:48:29.949Z,102168.72
2023-01-26T07:51:00.135Z,102169.89
2023-01-26T07:53:30.180Z,102164.77
2023-01-26T07:56:16.131Z,102169.54
2023-01-26T07:58:46.446Z,102169.03
2023-01-26T08:01:15.750Z,102167.80
2023-01-26T08:03:45.697Z,102159.40
2023-01-26T08:06:15.554Z,102163.76
2023-01-26T08:08:45.226Z,102164.07
2023-01-26T08:11:14.614Z,102154.46
2023-01-26T08:13:42.777Z,102166.26
2023-01-26T08:16:12.858Z,102162.05
2023-01-26T08:18:43.448Z,102157.66
2023-01-26T08:21:13.439Z,102152.59
2023-01-26T08:23:41.874Z,102147.94
2023-01-26T08:26:13.666Z,102148.17
2023-01-26T08:28:42.052Z,102148.45
2023-01-26T08:31:13.304Z,102150.95
2023-01-26T08:33:42.817Z,102151.20
2023-01-26T08:36:13.183Z,102149.21
2023-01-26T08:38:42.536Z,102144.57
2023-01-26T08:41:11.307Z,102140.11
2023-01-26T08:43:40.117Z,102142.85
2023-01-26T08:46:08.718Z,102145.81
2023-01-26T08:48:37.610Z,102148.35
2023-01-26T08:51:07.561Z,102146.83
2023-01-26T08:53:37.755Z,102144.45
2023-01-26T08:56:08.182Z,102138.84
2023-01-26T08:58:37.259Z,102129.33
2023-01-26T09:01:06.606Z,102144.75
2023-01-26T09:03:34.951Z,102144.19
2023-01-26T09:06:04.838Z,102146.56
2023-01-26T09:08:33.447Z,102147.30
2023-01-26T09:11:02.192Z,102145.05
2023-01-26T09:13:30.370Z,102141.14
2023-01-26T09:15:58.772Z,102140.88
2023-01-26T09:18:26.891Z,102138.09
2023-01-26T09:20:56.013Z,102141.10
2023-01-26T09:23:24.164Z,102137.95
2023-01-26T09:25:55.446Z,102140.82
2023-01-26T09:28:23.621Z,102138.57
2023-01-26T09:30:51.840Z,102134.59
2023-01-26T09:33:21.674Z,102137.98
2023-01-26T09:35:50.370Z,102141.28
2023-01-26T09:38:18.470Z,102142.23
2023-01-26T09:40:58.903Z,102139.91
2023-01-26T09:43:38.762Z,102137.02
2023-01-26T09:46:22.394Z,102135.71
2023-01-26T09:49:11.289Z,102119.13
2023-01-26T09:51:58.182Z,102133.97
2023-01-26T09:54:37.025Z,102135.02
2023-01-26T09:57:14.782Z,102120.52
2023-01-26T09:59:46.084Z,102136.08
2023-01-26T10:02:36.101Z,102134.95
2023-01-26T10:05:32.273Z,102130.69
2023-01-26T10:08:05.499Z,102131.22
2023-01-26T10:10:39.509Z,102135.23
2023-01-26T10:13:09.901Z,102139.73
2023-01-26T10:15:43.882Z,102135.97
2023-01-26T10:18:37.379Z,102136.40
2023-01-26T10:21:07.736Z,102128.91
2023-01-26T10:23:36.259Z,102121.91
2023-01-26T10:26:17.117Z,102118.36
2023-01-26T10:28:47.903Z,102125.29
2023-01-26T10:31:25.747Z,102129.45
2023-01-26T10:34:13.052Z,102128.84
2023-01-26T10:36:44.065Z,102131.16
2023-01-26T10:39:15.682Z,102127.18
2023-01-26T10:42:04.409Z,102091.26
2023-01-26T10:44:35.181Z,102118.83
2023-01-26T10:47:17.055Z,102116.48
2023-01-26T10:49:45.391Z,102120.67
2023-01-26T10:52:18.095Z,102115.41
2023-01-26T10:54:46.751Z,102115.98
2023-01-26T10:57:19.817Z,102099.27
2023-01-26T11:00:08.489Z,102109.33
2023-01-26T11:02:37.341Z,102114.99
2023-01-26T11:05:08.600Z,102109.98
2023-01-26T11:07:45.364Z,102111.77
2023-01-26T11:10:37.253Z,102104.81
2023-01-26T11:13:22.592Z,102097.75
2023-01-26T11:16:04.166Z,102094.16
2023-01-26T11:18:32.269Z,102087.17
2023-01-26T11:21:06.733Z,102081.05
2023-01-26T11:23:51.961Z,102079.21
2023-01-26T11:26:50.140Z,102061.66
2023-01-26T11:29:52.651Z,102077.07
2023-01-26T11:32:25.324Z,102077.48
2023-01-26T11:35:05.213Z,102077.42
2023-01-26T11:37:36.627Z,102074.48
2023-01-26T11:40:23.327Z,102074.16
2023-01-26T11:43:16.323Z,102069.95
2023-01-26T11:46:02.921Z,102069.80
2023-01-26T11:48:37.452Z,102066.98
2023-01-26T11:51:29.804Z,102063.23
2023-01-26T11:54:47.221Z,102061.81
2023-01-26T11:57:21.217Z,102063.85
2023-01-26T12:00:01.336Z,102065.92
2023-01-26T12:02:38.961Z,102069.95
2023-01-26T12:05:25.071Z,102073.98
2023-01-26T12:08:05.073Z,102067.89
2023-01-26T12:10:36.763Z,102066.89
2023-01-26T12:13:16.588Z,102061.73
2023-01-26T12:15:52.551Z,102068.20
2023-01-26T12:18:50.674Z,102067.81
2023-01-26T12:21:22.872Z,102065.48
2023-01-26T12:24:00.299Z,102060.21
2023-01-26T12:26:33.963Z,102054.22
2023-01-26T12:29:11.124Z,102046.19
2023-01-26T12:31:49.417Z,102035.88
2023-01-26T12:34:19.532Z,102044.34
2023-01-26T12:37:04.604Z,102040.31
2023-01-26T12:39:45.159Z,102032.41
2023-01-26T12:42:56.632Z,102028.80
2023-01-26T12:45:32.721Z,102023.83
2023-01-26T12:48:27.950Z,102020.41
2023-01-26T12:51:09.208Z,102023.55
2023-01-26T12:53:54.712Z,102023.84
2023-01-26T12:56:35.369Z,102027.59
2023-01-26T12:59:28.319Z,102024.93
2023-01-26T13:02:34.235Z,102017.16
2023-01-26T13:05:04.160Z,102019.88
2023-01-26T13:07:40.338Z,102023.39
2023-01-26T13:10:15.445Z,102023.64
2023-01-26T13:12:49.048Z,102022.42
2023-01-26T13:15:20.252Z,102022.17
2023-01-26T13:17:50.167Z,102005.56
2023-01-26T13:20:43.382Z,102022.02
2023-01-26T13:23:59.652Z,102021.98
2023-01-26T13:26:33.989Z,102014.24
2023-01-26T13:29:36.290Z,102014.30
2023-01-26T13:32:10.430Z,102012.52
2023-01-26T13:34:46.574Z,102012.95
2023-01-26T13:37:14.817Z,102015.84
2023-01-26T13:39:47.301Z,102015.91
2023-01-26T13:42:22.952Z,101999.34
2023-01-26T13:44:59.026Z,102005.38
2023-01-26T13:47:38.354Z,101997.85
2023-01-26T13:50:25.843Z,101994.84
2023-01-26T13:52:54.038Z,101996.19
2023-01-26T13:55:29.058Z,101996.23
2023-01-26T13:58:18.349Z,102002.37
2023-01-26T14:01:11.536Z,101982.11
2023-01-26T14:03:39.798Z,101997.81
2023-01-26T14:06:13.195Z,101994.67
2023-01-26T14:09:03.072Z,101992.54
2023-01-26T14:11:33.539Z,101993.68
2023-01-26T14:14:02.847Z,101991.65
2023-01-26T14:16:37.765Z,101991.42
2023-01-26T14:19:05.959Z,101997.41
2023-01-26T14:21:46.033Z,101999.42
2023-01-26T14:24:14.648Z,101996.64
2023-01-26T14:26:43.863Z,101984.77
2023-01-26T14:29:19.567Z,102004.59
2023-01-26T14:31:49.333Z,102006.42
2023-01-26T14:34:24.095Z,102013.03
2023-01-26T14:37:05.841Z,102010.95
2023-01-26T14:39:34.354Z,102009.33
2023-01-26T14:42:04.254Z,102011.73
2023-01-26T14:44:32.681Z,102013.81
2023-01-26T14:47:05.860Z,102020.94
2023-01-26T14:49:43.482Z,102023.38
2023-01-26T14:52:45.898Z,102023.39
2023-01-26T14:55:28.388Z,102020.91
2023-01-26T14:57:58.706Z,102019.21
2023-01-26T15:00:36.286Z,102010.23
2023-01-26T15:03:11.302Z,102016.63
2023-01-26T15:05:43.331Z,102019.34
2023-01-26T15:08:23.904Z,102021.08
2023-01-26T15:11:19.928Z,102020.69
2023-01-26T15:13:54.275Z,102021.55
2023-01-26T15:16:24.817Z,102024.30
2023-01-26T15:19:01.282Z,102029.73
2023-01-26T15:21:34.213Z,102028.41
2023-01-26T15:24:04.053Z,102025.44
2023-01-26T15:26:36.757Z,102022.08
2023-01-26T15:29:16.824Z,102021.47
2023-01-26T15:31:52.633Z,102019.33
2023-01-26T15:34:42.399Z,102017.30
2023-01-26T15:37:30.265Z,101981.15
2023-01-26T15:39:58.946Z,102017.45
2023-01-26T15:42:30.345Z,102020.33
2023-01-26T15:44:58.807Z,102021.77
2023-01-26T15:47:27.162Z,102024.31
2023-01-26T15:49:58.434Z,102019.77
2023-01-26T15:52:30.629Z,102019.14
2023-01-26T15:54:59.346Z,102019.32
2023-01-26T15:57:27.697Z,102020.29
2023-01-26T15:59:56.006Z,102021.48
2023-01-26T16:02:24.458Z,102020.53
2023-01-26T16:04:53.126Z,102027.02
2023-01-26T16:07:21.723Z,102021.84
2023-01-26T16:09:52.119Z,102021.57
2023-01-26T16:12:32.296Z,102026.35
2023-01-26T16:15:01.437Z,102028.93
2023-01-26T16:17:30.127Z,102025.38
2023-01-26T16:19:58.693Z,102030.06
2023-01-26T16:22:27.019Z,102029.23
2023-01-26T16:24:55.519Z,102032.45
2023-01-26T16:27:23.886Z,102030.53
2023-01-26T16:29:52.358Z,102034.82
2023-01-26T16:32:29.118Z,102034.83
2023-01-26T16:34:57.520Z,102029.80
2023-01-26T16:37:25.802Z,102032.08
2023-01-26T16:39:54.086Z,102030.39
2023-01-26T16:42:24.021Z,102032.30
2023-01-26T16:44:52.390Z,102034.16
2023-01-26T16:47:20.706Z,102015.39
2023-01-26T16:49:50.281Z,102023.44
2023-01-26T16:52:19.280Z,102034.31
2023-01-26T16:54:50.176Z,102031.66
2023-01-26T16:57:18.542Z,102030.48
2023-01-26T16:59:46.926Z,102030.20
2023-01-26T17:02:27.851Z,102028.83
2023-01-26T17:04:56.589Z,102027.30
2023-01-26T17:07:24.946Z,102031.39
2023-01-26T17:09:53.474Z,102030.02
2023-01-26T17:12:21.964Z,102030.56
2023-01-26T17:14:50.568Z,102032.06
2023-01-26T17:17:19.204Z,102031.90
2023-01-26T17:19:47.483Z,102030.39
2023-01-26T17:22:15.991Z,102031.08
2023-01-26T17:24:44.591Z,102033.52
2023-01-26T17:27:13.547Z,102033.76
2023-01-26T17:29:42.539Z,102036.57
2023-01-26T17:32:11.571Z,102041.11
2023-01-26T17:34:40.147Z,102003.59
2023-01-26T17:37:08.422Z,102037.73
2023-01-26T17:39:36.755Z,102057.70
2023-01-26T17:42:05.254Z,102056.48
2023-01-26T17:44:33.705Z,102054.19
2023-01-26T17:47:02.085Z,102060.59
2023-01-26T17:49:30.628Z,102040.09
2023-01-26T17:51:58.980Z,102047.50
2023-01-26T17:54:27.442Z,102048.46
2023-01-26T17:56:55.838Z,102050.61
2023-01-26T17:59:25.441Z,102053.16
2023-01-26T18:01:54.070Z,102054.20
2023-01-26T18:04:22.385Z,102053.46
2023-01-26T18:06:50.694Z,102047.90
2023-01-26T18:09:19.185Z,102044.39
2023-01-26T18:11:48.554Z,102041.88
2023-01-26T18:14:17.059Z,102039.70
2023-01-26T18:16:45.482Z,102039.97
2023-01-26T18:19:14.355Z,102035.59
2023-01-26T18:21:42.817Z,102033.16
2023-01-26T18:24:11.228Z,102033.27
2023-01-26T18:26:40.195Z,102030.72
2023-01-26T18:29:09.007Z,102028.47
2023-01-26T18:31:42.291Z,102029.35
2023-01-26T18:34:11.957Z,102032.05
2023-01-26T18:36:40.315Z,102034.73
2023-01-26T18:39:12.972Z,102043.30
2023-01-26T18:41:43.471Z,102042.55
2023-01-26T18:44:11.846Z,102042.00
2023-01-26T18:46:40.234Z,102045.45
2023-01-26T18:49:10.165Z,102043.15
2023-01-26T18:51:38.890Z,102041.20
2023-01-26T18:54:09.868Z,102041.45
2023-01-26T18:56:38.621Z,102040.11
2023-01-26T18:59:09.991Z,102041.15
2023-01-26T19:01:39.588Z,102039.16
2023-01-26T19:04:08.166Z,102043.76
2023-01-26T19:06:36.578Z,102043.63
2023-01-26T19:09:07.648Z,102038.55
2023-01-26T19:11:39.800Z,102036.59
2023-01-26T19:14:08.817Z,102039.34
2023-01-26T19:16:38.242Z,102047.36
2023-01-26T19:19:06.586Z,102058.56
2023-01-26T19:21:35.093Z,102062.34
2023-01-26T19:24:06.325Z,102059.69
2023-01-26T19:26:35.163Z,102057.02
2023-01-26T19:29:03.876Z,102055.73
2023-01-26T19:31:32.406Z,102030.45
2023-01-26T19:34:02.734Z,102048.24
2023-01-26T19:36:34.804Z,102050.29
2023-01-26T19:39:04.640Z,102048.22
2023-01-26T19:41:33.870Z,102056.46
2023-01-26T19:44:02.408Z,102053.50
2023-01-26T19:46:30.781Z,102023.34
2023-01-26T19:48:59.292Z,102024.54
2023-01-26T19:51:28.291Z,102046.04
2023-01-26T19:53:59.449Z,102047.66
2023-01-26T19:56:33.074Z,102049.60
2023-01-26T19:59:04.907Z,102051.68
2023-01-26T20:01:34.217Z,102046.25
2023-01-26T20:04:09.551Z,102028.20
2023-01-26T20:06:38.222Z,102041.63
2023-01-26T20:09:08.039Z,102035.82
2023-01-26T20:11:36.622Z,102035.96
2023-01-26T20:14:08.897Z,102034.98
2023-01-26T20:16:40.104Z,102037.39
2023-01-26T20:19:08.553Z,102035.02
2023-01-26T20:21:38.940Z,102036.45
2023-01-26T20:24:11.222Z,102011.55
2023-01-26T20:26:40.039Z,102034.15
2023-01-26T20:29:08.403Z,102024.64
2023-01-26T20:31:36.769Z,102039.38
2023-01-26T20:34:05.340Z,102039.03
2023-01-26T20:36:34.335Z,102031.73
2023-01-26T20:39:03.230Z,102026.88
2023-01-26T20:41:33.323Z,102023.05
2023-01-26T20:44:04.818Z,102023.73
2023-01-26T20:46:39.199Z,102022.48
2023-01-26T20:49:10.872Z,102020.90
2023-01-26T20:51:42.737Z,102026.70
2023-01-26T20:54:13.485Z,102029.77
2023-01-26T20:56:42.418Z,102030.33
2023-01-26T20:59:11.576Z,102030.95
2023-01-26T21:01:40.036Z,102019.54
2023-01-26T21:04:08.357Z,102037.40
2023-01-26T21:06:36.759Z,102040.12
2023-01-26T21:09:05.625Z,102041.15
2023-01-26T21:11:34.965Z,102040.37
2023-01-26T21:14:04.333Z,102045.13
2023-01-26T21:16:33.348Z,102050.69
2023-01-26T21:19:01.746Z,102050.19
2023-01-26T21:21:30.302Z,102051.09
2023-01-26T21:23:59.498Z,102052.52
2023-01-26T21:26:30.877Z,102050.89
2023-01-26T21:29:00.361Z,102053.64
2023-01-26T21:31:31.182Z,102058.64
2023-01-26T21:34:00.428Z,102056.77
2023-01-26T21:36:34.413Z,102055.91
2023-01-26T21:39:06.920Z,102052.45
2023-01-26T21:41:54.336Z,102052.80
2023-01-26T21:44:30.739Z,102052.95
2023-01-26T21:47:02.005Z,102052.70
2023-01-26T21:49:30.784Z,102053.38
2023-01-26T21:52:18.487Z,102049.54
2023-01-26T21:54:46.786Z,102047.09
2023-01-26T21:57:34.262Z,102047.79
2023-01-26T22:00:03.367Z,102045.50
2023-01-26T22:02:32.969Z,102042.82
2023-01-26T22:05:01.405Z,102045.23
2023-01-26T22:07:30.011Z,102041.42
2023-01-26T22:09:58.382Z,102037.91
2023-01-26T22:12:26.739Z,102017.92
2023-01-26T22:14:55.016Z,102034.35
2023-01-26T22:17:23.524Z,102037.92
2023-01-26T22:19:51.866Z,102032.01
2023-01-26T22:22:20.365Z,102014.98
2023-01-26T22:24:48.761Z,102034.67
2023-01-26T22:27:17.314Z,102033.88
2023-01-26T22:29:46.202Z,102032.70
2023-01-26T22:32:14.502Z,102032.30
2023-01-26T22:34:42.802Z,102029.39
2023-01-26T22:37:11.068Z,102030.16
2023-01-26T22:39:39.522Z,102029.83
2023-01-26T22:42:07.853Z,102016.89
2023-01-26T22:44:36.573Z,102033.58
2023-01-26T22:47:04.991Z,102040.73
2023-01-26T22:49:33.495Z,102037.40
2023-01-26T22:52:01.821Z,102039.63
2023-01-26T22:54:30.222Z,102039.45
2023-01-26T22:56:58.488Z,102042.52
2023-01-26T22:59:26.922Z,102040.73
2023-01-26T23:01:55.326Z,102044.04
2023-01-26T23:04:23.708Z,102047.42
2023-01-26T23:06:52.081Z,102044.45
2023-01-26T23:09:20.671Z,102047.26
2023-01-26T23:12:03.007Z,102045.70
2023-01-26T23:14:32.131Z,102047.36
2023-01-26T23:17:00.779Z,102047.02
2023-01-26T23:19:30.259Z,102046.45
2023-01-26T23:21:58.653Z,102046.42
2023-01-26T23:24:27.064Z,102046.66
2023-01-26T23:26:58.359Z,102049.33
2023-01-26T23:29:26.849Z,102040.30
2023-01-26T23:31:55.440Z,102038.23
2023-01-26T23:34:23.994Z,102039.20
2023-01-26T23:36:52.325Z,102045.46
2023-01-26T23:39:20.717Z,102048.01
2023-01-26T23:41:49.116Z,102050.27
2023-01-26T23:44:17.724Z,102049.85
2023-01-26T23:46:46.093Z,102008.41
2023-01-26T23:49:14.478Z,102044.61
2023-01-26T23:51:43.127Z,102042.23
2023-01-26T23:54:11.440Z,102036.95
2023-01-26T23:56:39.772Z,102038.10
2023-01-26T23:59:08.059Z,102034.77
